Time;durP1;ratioP1;P1;durP2;ratioP2;P2;SDS_P1;SDS_P2;PMS_P1;PMS_P2;Temp;Humidity;BMP_temperature;BMP_pressure;BME280_temperature;BME280_humidity;BME280_pressure;Samples;Min_cycle;Max_cycle;Signal;HPM_P1;HPM_P2
2022/08/10 00:01:13;;;;;;;2.40;1.87;;;25.70;52.70;;;;;;4992757;28;20485;-58
2022/08/10 00:03:42;;;;;;;2.40;1.50;;;25.60;52.70;;;;;;4994111;28;20451;-56
2022/08/10 00:06:09;;;;;;;1.63;1.53;;;25.70;52.80;;;;;;5011487;28;20781;-58
2022/08/10 00:08:35;;;;;;;5.13;2.20;;;25.60;52.80;;;;;;5012140;28;20513;-55
2022/08/10 00:11:02;;;;;;;2.00;1.90;;;25.60;52.90;;;;;;5012758;28;20947;-56
2022/08/10 00:13:30;;;;;;;2.30;2.20;;;25.60;52.90;;;;;;5012672;28;20528;-57
2022/08/10 00:15:57;;;;;;;1.47;1.47;;;25.60;53.50;;;;;;4993526;28;20486;-55
2022/08/10 00:18:25;;;;;;;2.40;1.93;;;25.60;53.00;;;;;;4992931;28;20829;-54
2022/08/10 00:20:53;;;;;;;1.40;1.40;;;25.60;53.10;;;;;;4993039;28;20451;-56
2022/08/10 00:23:20;;;;;;;1.80;1.70;;;25.50;53.10;;;;;;4992943;28;20451;-57
2022/08/10 00:25:47;;;;;;;1.53;1.53;;;25.60;53.20;;;;;;5009522;28;20485;-58
2022/08/10 00:28:14;;;;;;;2.60;1.90;;;25.50;53.10;;;;;;5012360;28;20485;-58
2022/08/10 00:30:41;;;;;;;2.03;1.83;;;25.50;53.20;;;;;;5012405;28;20442;-56
2022/08/10 00:33:08;;;;;;;1.70;1.70;;;25.50;53.20;;;;;;5012349;28;20456;-59
2022/08/10 00:35:35;;;;;;;2.10;2.00;;;25.50;53.80;;;;;;4995858;28;20531;-57
2022/08/10 00:38:03;;;;;;;1.53;1.53;;;25.50;53.40;;;;;;4992599;28;20498;-56
2022/08/10 00:40:30;;;;;;;1.90;1.80;;;25.50;53.40;;;;;;4992686;28;20478;-57
2022/08/10 00:42:57;;;;;;;1.60;1.50;;;25.50;53.40;;;;;;4992553;28;20479;-56
2022/08/10 00:45:24;;;;;;;2.27;2.03;;;25.50;53.50;;;;;;5006310;28;20529;-55
2022/08/10 00:47:51;;;;;;;2.03;1.93;;;25.40;53.50;;;;;;5012021;28;20521;-59
2022/08/10 00:50:18;;;;;;;1.93;1.83;;;25.40;53.60;;;;;;5012120;28;20840;-56
2022/08/10 00:52:45;;;;;;;1.70;1.60;;;25.40;53.60;;;;;;5012187;28;20449;-57
2022/08/10 00:55:13;;;;;;;1.97;1.87;;;25.40;53.70;;;;;;4999393;28;20478;-56
2022/08/10 00:57:41;;;;;;;1.73;1.70;;;25.40;53.70;;;;;;4992387;28;20555;-57
2022/08/10 01:00:09;;;;;;;2.00;1.90;;;25.40;53.70;;;;;;4992641;28;20881;-56
2022/08/10 01:02:36;;;;;;;1.67;1.57;;;25.40;53.80;;;;;;4992747;28;20546;-56
2022/08/10 01:05:07;;;;;;;1.57;1.47;;;25.40;53.80;;;;;;4992184;28;20447;-58
2022/08/10 01:07:45;;;;;;;1.87;1.77;;;25.40;53.90;;;;;;4992283;28;20497;-57
2022/08/10 01:10:25;;;;;;;1.57;1.47;;;25.40;53.90;;;;;;4992410;28;20549;-57
2022/08/10 01:12:57;;;;;;;1.80;1.70;;;25.40;53.90;;;;;;4976912;28;20453;-55
2022/08/10 01:15:29;;;;;;;1.90;1.73;;;25.40;54.00;;;;;;4976785;28;20475;-58
2022/08/10 01:18:02;;;;;;;1.57;1.47;;;25.30;54.00;;;;;;4976860;28;20869;-57
2022/08/10 01:20:38;;;;;;;1.67;1.57;;;25.30;54.00;;;;;;4992252;28;20541;-53
2022/08/10 01:23:36;;;;;;;1.87;1.77;;;25.30;54.00;;;;;;4997084;28;20821;-56
2022/08/10 01:26:34;;;;;;;2.07;1.97;;;25.40;54.10;;;;;;4986016;28;20548;-58
2022/08/10 01:29:16;;;;;;;2.73;1.97;;;25.30;54.10;;;;;;4997395;28;20916;-57
2022/08/10 01:31:49;;;;;;;1.80;1.70;;;25.30;54.20;;;;;;5007913;28;20526;-58
2022/08/10 01:34:22;;;;;;;2.07;1.87;;;25.30;54.30;;;;;;4995883;28;20486;-57
2022/08/10 01:36:53;;;;;;;1.77;1.67;;;25.30;54.40;;;;;;4995849;28;20895;-54
2022/08/10 01:39:28;;;;;;;1.70;1.60;;;25.20;54.40;;;;;;4999501;28;20935;-52
2022/08/10 01:42:00;;;;;;;2.10;2.00;;;25.20;54.50;;;;;;5015563;28;20485;-52
2022/08/10 01:44:32;;;;;;;1.50;1.50;;;25.20;54.60;;;;;;5015334;28;20949;-52
2022/08/10 01:49:46;;;;;;;2.37;2.20;;;25.20;54.60;;;;;;5007940;28;20497;-51
2022/08/10 01:52:15;;;;;;;1.53;1.50;;;25.20;54.80;;;;;;4995645;28;20485;-52
2022/08/10 01:54:44;;;;;;;1.97;1.87;;;25.20;54.90;;;;;;4995338;28;20529;-58
2022/08/10 01:57:13;;;;;;;1.97;1.87;;;25.20;55.00;;;;;;4995407;28;20470;-57
2022/08/10 01:59:43;;;;;;;2.67;1.73;;;25.20;55.10;;;;;;5001299;28;20536;-57
2022/08/10 02:02:15;;;;;;;1.93;1.83;;;25.20;55.20;;;;;;5014758;28;20477;-53
2022/08/10 02:04:44;;;;;;;1.70;1.60;;;25.20;55.40;;;;;;5014785;28;20529;-56
2022/08/10 02:07:16;;;;;;;1.87;1.77;;;25.20;55.60;;;;;;5014894;28;20501;-57
2022/08/10 02:09:47;;;;;;;1.97;1.87;;;25.20;55.70;;;;;;5008573;28;20457;-57
2022/08/10 02:12:21;;;;;;;1.93;1.83;;;25.20;55.80;;;;;;4995368;28;20482;-53
2022/08/10 02:14:52;;;;;;;1.83;1.83;;;25.10;55.80;;;;;;4994984;28;20960;-59
2022/08/10 02:17:25;;;;;;;2.03;1.50;;;25.10;55.80;;;;;;4995123;28;20828;-58
2022/08/10 02:19:54;;;;;;;1.53;1.47;;;25.10;55.80;;;;;;4975788;28;20479;-58
2022/08/10 02:22:22;;;;;;;2.33;2.17;;;25.10;55.80;;;;;;4974456;28;20487;-59
2022/08/10 02:24:50;;;;;;;2.37;2.27;;;25.10;56.00;;;;;;4975297;28;20892;-58
2022/08/10 02:27:19;;;;;;;2.10;1.63;;;25.10;56.00;;;;;;4975566;28;20499;-58
2022/08/10 02:29:47;;;;;;;1.80;1.70;;;25.00;55.90;;;;;;4975547;28;20543;-55
2022/08/10 02:32:15;;;;;;;1.50;1.50;;;25.00;55.80;;;;;;4975490;28;20456;-55
2022/08/10 02:34:44;;;;;;;2.17;1.80;;;25.00;55.80;;;;;;4975271;28;20527;-57
2022/08/10 02:37:13;;;;;;;1.77;1.77;;;25.00;55.90;;;;;;4975297;28;20554;-56
2022/08/10 02:39:40;;;;;;;2.33;2.13;;;25.00;55.90;;;;;;5012798;28;20445;-59
2022/08/10 02:42:12;;;;;;;1.77;1.67;;;25.00;55.90;;;;;;5014350;28;20561;-55
2022/08/10 02:44:43;;;;;;;1.80;1.80;;;25.00;56.00;;;;;;5012376;28;20536;-54
2022/08/10 02:47:14;;;;;;;2.30;2.00;;;24.90;56.00;;;;;;5014213;28;20505;-54
2022/08/10 02:49:49;;;;;;;2.90;2.13;;;24.90;56.10;;;;;;5014158;28;20576;-51
2022/08/10 02:52:20;;;;;;;1.40;1.30;;;24.90;56.20;;;;;;5014270;28;20844;-54
2022/08/10 02:54:52;;;;;;;1.90;1.80;;;24.90;56.20;;;;;;5006955;28;20964;-56
2022/08/10 02:57:22;;;;;;;2.20;2.10;;;24.90;56.20;;;;;;4995039;28;20886;-54
2022/08/10 02:59:52;;;;;;;1.67;1.57;;;24.90;56.30;;;;;;4994710;28;20474;-55
2022/08/10 03:02:25;;;;;;;1.73;1.63;;;24.90;56.40;;;;;;4994473;28;20482;-55
2022/08/10 03:04:57;;;;;;;1.93;1.80;;;24.90;57.00;;;;;;5001161;28;20526;-58
2022/08/10 03:07:27;;;;;;;2.20;1.83;;;24.90;56.50;;;;;;5013807;28;20552;-58
2022/08/10 03:09:55;;;;;;;1.87;1.77;;;24.90;56.50;;;;;;5014020;28;20525;-55
2022/08/10 03:12:24;;;;;;;1.63;1.50;;;24.90;56.50;;;;;;5012996;28;20489;-52
2022/08/10 03:14:51;;;;;;;2.30;2.20;;;24.90;56.50;;;;;;4994111;28;20450;-51
2022/08/10 03:17:18;;;;;;;2.20;2.10;;;24.90;56.60;;;;;;4994292;28;20554;-53
2022/08/10 03:19:46;;;;;;;2.30;2.20;;;24.80;56.50;;;;;;4994072;28;20514;-51
2022/08/10 03:22:16;;;;;;;1.70;1.70;;;24.80;56.60;;;;;;4993982;28;20517;-49
2022/08/10 03:24:44;;;;;;;1.80;1.70;;;24.80;56.70;;;;;;4993747;28;20482;-50
2022/08/10 03:27:14;;;;;;;2.07;1.87;;;24.80;56.80;;;;;;4993749;28;20462;-51
2022/08/10 03:29:41;;;;;;;1.60;1.60;;;24.70;56.70;;;;;;4993877;28;20514;-49
2022/08/10 03:32:10;;;;;;;2.10;1.97;;;24.70;56.60;;;;;;4993780;28;20486;-50
2022/08/10 03:34:38;;;;;;;2.10;1.90;;;24.70;56.60;;;;;;5010870;28;20486;-49
2022/08/10 03:37:05;;;;;;;3.80;2.53;;;24.70;56.70;;;;;;5013239;28;20806;-49
2022/08/10 03:39:33;;;;;;;2.77;2.27;;;24.70;56.70;;;;;;5013338;28;20466;-49
2022/08/10 03:42:04;;;;;;;2.23;2.13;;;24.70;56.70;;;;;;5013182;28;20445;-56
2022/08/10 03:44:33;;;;;;;3.67;2.00;;;24.70;56.80;;;;;;5011384;28;20951;-50
2022/08/10 03:47:01;;;;;;;2.40;2.20;;;24.70;56.80;;;;;;5012767;28;21002;-49
2022/08/10 03:49:30;;;;;;;2.57;2.47;;;24.70;56.90;;;;;;5013121;28;21284;-50
2022/08/10 03:51:58;;;;;;;2.30;2.20;;;24.60;56.80;;;;;;5013086;28;20947;-52
2022/08/10 03:54:26;;;;;;;2.80;2.60;;;24.60;56.80;;;;;;4996602;28;20487;-55
2022/08/10 03:56:55;;;;;;;2.90;2.30;;;24.60;56.90;;;;;;4993147;28;20474;-55
2022/08/10 03:59:22;;;;;;;3.60;2.60;;;24.60;57.00;;;;;;4993283;28;20475;-52
2022/08/10 04:01:51;;;;;;;2.80;2.70;;;24.60;57.00;;;;;;4993145;28;20533;-56
2022/08/10 04:04:19;;;;;;;3.07;2.87;;;24.60;57.00;;;;;;5007359;28;20559;-49
2022/08/10 04:06:46;;;;;;;2.53;2.43;;;24.60;57.10;;;;;;5012653;28;20474;-58
2022/08/10 04:09:13;;;;;;;2.80;2.60;;;24.60;57.20;;;;;;5012679;28;20509;-51
2022/08/10 04:11:40;;;;;;;3.10;2.90;;;24.60;57.10;;;;;;5012811;28;20454;-52
2022/08/10 04:14:09;;;;;;;2.60;2.40;;;24.60;57.10;;;;;;4999207;28;20457;-55
2022/08/10 04:16:35;;;;;;;4.03;3.67;;;24.60;57.10;;;;;;4992763;28;20871;-54
2022/08/10 04:19:03;;;;;;;2.90;2.80;;;24.60;57.20;;;;;;4992981;28;20443;-52
2022/08/10 04:21:34;;;;;;;2.50;2.40;;;24.60;57.20;;;;;;4997890;28;20521;-48
2022/08/10 04:24:06;;;;;;;2.73;2.53;;;24.50;57.20;;;;;;5012229;28;20532;-49
2022/08/10 04:26:33;;;;;;;2.80;2.60;;;24.60;57.40;;;;;;5012378;28;20533;-51
2022/08/10 04:29:01;;;;;;;2.67;2.53;;;24.50;57.30;;;;;;5012312;28;20593;-54
2022/08/10 04:31:31;;;;;;;3.40;3.07;;;24.50;57.30;;;;;;5007350;28;20463;-56
2022/08/10 04:33:59;;;;;;;2.40;2.30;;;24.50;57.50;;;;;;4992578;28;20829;-57
2022/08/10 04:36:26;;;;;;;2.83;2.63;;;24.50;57.60;;;;;;4992516;28;20943;-56
2022/08/10 04:38:54;;;;;;;2.97;2.43;;;24.50;57.70;;;;;;4992669;28;20833;-50
2022/08/10 04:41:21;;;;;;;2.73;2.63;;;24.50;57.80;;;;;;4995934;28;20485;-53
2022/08/10 04:43:48;;;;;;;2.60;2.40;;;24.50;58.00;;;;;;5011912;28;20453;-50
2022/08/10 04:46:15;;;;;;;3.07;2.87;;;24.50;58.00;;;;;;5011455;28;20481;-49
2022/08/10 04:48:43;;;;;;;2.40;2.30;;;24.50;58.00;;;;;;5011993;28;20495;-54
2022/08/10 04:51:13;;;;;;;3.30;3.10;;;24.60;58.10;;;;;;5009906;28;20449;-54
2022/08/10 04:53:40;;;;;;;2.23;2.13;;;24.60;58.20;;;;;;4992314;28;20521;-51
2022/08/10 04:56:08;;;;;;;3.33;2.73;;;24.60;58.30;;;;;;4992333;28;20538;-51
2022/08/10 04:58:34;;;;;;;2.87;2.67;;;24.60;58.30;;;;;;4992209;28;20471;-53
2022/08/10 05:01:01;;;;;;;2.60;2.50;;;24.60;58.90;;;;;;4992694;28;20517;-49
2022/08/10 05:03:28;;;;;;;3.30;3.10;;;24.60;58.60;;;;;;5011876;28;20450;-50
2022/08/10 05:05:57;;;;;;;2.47;2.37;;;24.60;59.20;;;;;;5011586;28;20484;-53
2022/08/10 05:08:24;;;;;;;2.43;2.33;;;24.60;58.60;;;;;;5011939;28;20490;-54
2022/08/10 05:10:51;;;;;;;5.63;2.40;;;24.70;58.50;;;;;;5011747;28;20811;-53
2022/08/10 05:13:19;;;;;;;3.03;2.83;;;24.70;58.70;;;;;;4992719;28;20494;-54
2022/08/10 05:15:47;;;;;;;2.37;2.27;;;24.70;58.70;;;;;;4992285;28;20450;-49
2022/08/10 05:18:14;;;;;;;3.27;3.07;;;24.70;58.50;;;;;;4992098;28;20481;-51
2022/08/10 05:20:41;;;;;;;2.30;2.17;;;24.70;58.70;;;;;;4992097;28;20513;-49
2022/08/10 05:23:09;;;;;;;2.80;2.60;;;24.70;58.70;;;;;;5009242;28;20533;-57
2022/08/10 05:25:36;;;;;;;3.70;3.40;;;24.80;59.60;;;;;;5011565;28;20938;-49
2022/08/10 05:28:03;;;;;;;3.70;2.83;;;24.80;59.70;;;;;;5011791;28;20895;-48
2022/08/10 05:30:30;;;;;;;2.60;2.40;;;24.90;59.70;;;;;;5011528;28;20493;-49
2022/08/10 05:32:58;;;;;;;2.30;2.20;;;25.00;59.70;;;;;;4995879;28;20451;-53
2022/08/10 05:35:25;;;;;;;3.13;2.83;;;25.10;60.10;;;;;;4991943;28;20546;-48
2022/08/10 05:37:55;;;;;;;2.93;2.73;;;25.20;59.70;;;;;;4991946;28;20831;-49
2022/08/10 05:40:24;;;;;;;2.97;2.73;;;25.20;59.20;;;;;;4991987;28;21026;-58
2022/08/10 05:42:51;;;;;;;4.60;3.17;;;25.30;58.90;;;;;;5006116;28;20508;-61
2022/08/10 05:45:21;;;;;;;2.80;2.70;;;25.30;58.80;;;;;;5011373;28;20547;-53
2022/08/10 05:47:48;;;;;;;2.33;2.23;;;25.40;59.20;;;;;;5011395;28;20560;-56
2022/08/10 05:50:17;;;;;;;3.23;3.03;;;25.40;59.30;;;;;;5011406;28;20569;-47
2022/08/10 05:52:44;;;;;;;3.10;2.80;;;25.50;58.40;;;;;;4998252;28;20603;-50
2022/08/10 05:55:11;;;;;;;5.57;2.90;;;25.50;58.30;;;;;;4991658;28;20931;-49
2022/08/10 05:57:40;;;;;;;4.93;2.87;;;25.50;58.40;;;;;;4993779;28;20510;-53
2022/08/10 06:00:10;;;;;;;3.40;3.10;;;25.60;58.50;;;;;;4995519;28;20844;-50
2022/08/10 06:02:41;;;;;;;3.20;3.00;;;25.60;58.20;;;;;;5006608;28;20445;-49
2022/08/10 06:05:09;;;;;;;2.80;2.70;;;25.70;57.60;;;;;;5014894;28;20446;-49
2022/08/10 06:07:41;;;;;;;2.97;2.77;;;25.70;57.30;;;;;;5014875;28;20560;-54
2022/08/10 06:10:12;;;;;;;3.00;2.80;;;25.70;57.00;;;;;;5014892;28;20588;-57
2022/08/10 06:12:41;;;;;;;2.87;2.67;;;25.80;56.80;;;;;;5003094;28;20517;-56
2022/08/10 06:15:10;;;;;;;3.07;2.87;;;25.80;56.60;;;;;;4995015;28;20533;-60
2022/08/10 06:17:38;;;;;;;2.93;2.73;;;25.80;57.30;;;;;;4995088;28;20494;-63
2022/08/10 06:20:06;;;;;;;2.90;2.77;;;25.80;56.90;;;;;;4999016;28;20484;-57
2022/08/10 06:22:34;;;;;;;3.37;3.07;;;25.90;57.00;;;;;;5014620;28;20481;-62
2022/08/10 06:25:02;;;;;;;3.73;3.43;;;25.90;56.60;;;;;;5014248;28;20856;-51
2022/08/10 06:27:29;;;;;;;3.07;2.87;;;26.00;56.40;;;;;;5014245;28;20850;-55
2022/08/10 06:30:00;;;;;;;3.00;2.90;;;26.00;56.70;;;;;;4997827;28;20921;-56
2022/08/10 06:32:29;;;;;;;4.30;3.33;;;26.00;56.20;;;;;;4994806;28;20550;-52
2022/08/10 06:34:58;;;;;;;3.43;3.13;;;26.00;56.70;;;;;;4994586;28;20563;-59
2022/08/10 06:37:29;;;;;;;3.20;2.90;;;26.10;56.30;;;;;;4994822;28;20505;-60
2022/08/10 06:39:56;;;;;;;3.83;3.00;;;26.10;55.80;;;;;;5010460;28;20529;-60
2022/08/10 06:42:29;;;;;;;4.20;3.00;;;26.10;55.90;;;;;;5014287;28;20535;-58
2022/08/10 06:45:01;;;;;;;3.93;3.53;;;26.10;55.50;;;;;;5014078;28;20446;-49
2022/08/10 06:47:39;;;;;;;2.80;2.60;;;26.20;55.50;;;;;;5014075;28;20474;-57
2022/08/10 06:50:13;;;;;;;2.97;2.77;;;26.20;56.10;;;;;;4996779;28;20485;-52
2022/08/10 06:52:42;;;;;;;3.53;3.23;;;26.20;55.50;;;;;;4994622;28;20559;-50
2022/08/10 06:55:14;;;;;;;2.97;2.47;;;26.30;55.80;;;;;;4995185;28;20952;-57
2022/08/10 06:57:42;;;;;;;2.60;2.50;;;26.30;55.10;;;;;;5012824;28;20478;-49
2022/08/10 07:00:14;;;;;;;3.10;2.90;;;26.30;54.90;;;;;;5013551;28;20434;-54
2022/08/10 07:02:50;;;;;;;3.33;3.03;;;26.30;54.60;;;;;;5014213;28;20869;-56
2022/08/10 07:05:20;;;;;;;5.37;3.13;;;26.30;54.40;;;;;;5012296;28;20437;-59
2022/08/10 07:07:49;;;;;;;2.70;2.50;;;26.40;54.60;;;;;;4995171;28;20471;-59
2022/08/10 07:10:19;;;;;;;4.10;3.80;;;26.40;54.60;;;;;;4994309;28;20482;-58
2022/08/10 07:12:47;;;;;;;6.40;2.70;;;26.40;54.80;;;;;;4995136;28;20451;-56
2022/08/10 07:15:17;;;;;;;3.10;2.90;;;26.50;54.90;;;;;;4995731;28;20485;-58
2022/08/10 07:17:46;;;;;;;3.27;3.07;;;26.50;54.80;;;;;;5014542;28;20498;-54
2022/08/10 07:20:18;;;;;;;3.33;2.90;;;26.60;54.80;;;;;;5014397;28;20518;-58
2022/08/10 07:22:51;;;;;;;6.40;3.27;;;26.60;54.60;;;;;;5014876;28;20864;-56
2022/08/10 07:25:24;;;;;;;3.87;3.53;;;26.60;54.60;;;;;;5013936;28;20814;-61
2022/08/10 07:27:52;;;;;;;2.83;2.73;;;26.60;54.30;;;;;;5014418;28;20983;-60
2022/08/10 07:30:20;;;;;;;2.83;2.73;;;26.60;54.50;;;;;;5013175;28;20489;-55
2022/08/10 07:32:51;;;;;;;3.00;2.80;;;26.70;54.20;;;;;;5014111;28;20477;-55
2022/08/10 07:35:20;;;;;;;3.40;2.93;;;26.70;54.30;;;;;;4999028;28;20518;-52
2022/08/10 07:37:50;;;;;;;3.77;3.47;;;26.80;54.00;;;;;;4994655;28;20904;-51
2022/08/10 07:40:20;;;;;;;2.93;2.63;;;26.80;54.00;;;;;;4994544;28;20451;-56
2022/08/10 07:42:50;;;;;;;3.30;3.00;;;26.80;54.00;;;;;;4994278;28;20450;-58
2022/08/10 07:45:18;;;;;;;3.00;2.73;;;26.80;54.40;;;;;;4993939;28;20489;-50
2022/08/10 07:47:50;;;;;;;3.20;3.07;;;26.80;53.70;;;;;;4994249;28;21001;-58
2022/08/10 07:50:20;;;;;;;3.53;2.73;;;26.80;53.40;;;;;;4994120;28;20514;-51
2022/08/10 07:52:48;;;;;;;3.40;3.17;;;26.80;53.20;;;;;;4994123;28;20457;-58
2022/08/10 07:55:18;;;;;;;3.77;3.40;;;26.80;53.40;;;;;;4994003;28;20539;-53
2022/08/10 07:57:49;;;;;;;3.87;3.47;;;26.80;53.40;;;;;;4993304;28;20517;-51
2022/08/10 08:00:18;;;;;;;3.22;2.80;;;26.80;53.40;;;;;;4992608;28;20524;-50
2022/08/10 08:02:55;;;;;;;2.87;2.77;;;26.80;53.40;;;;;;4993270;28;20624;-50
2022/08/10 08:05:24;;;;;;;2.77;2.67;;;26.90;53.30;;;;;;5007054;28;20896;-52
2022/08/10 08:07:53;;;;;;;3.60;3.30;;;27.00;53.50;;;;;;5002319;28;20578;-48
2022/08/10 08:10:25;;;;;;;3.57;2.93;;;27.00;53.10;;;;;;4993043;28;20518;-49
2022/08/10 08:12:53;;;;;;;2.97;2.87;;;27.00;53.00;;;;;;4993216;28;20852;-53
2022/08/10 08:15:22;;;;;;;3.60;3.40;;;27.00;52.60;;;;;;5006492;28;20521;-48
2022/08/10 08:17:53;;;;;;;3.53;3.23;;;27.00;52.90;;;;;;5012646;28;20493;-52
2022/08/10 08:20:21;;;;;;;3.20;3.00;;;27.00;52.80;;;;;;5011765;28;20526;-48
2022/08/10 08:22:49;;;;;;;3.27;3.17;;;27.00;52.90;;;;;;5012932;28;20446;-50
2022/08/10 08:25:17;;;;;;;3.87;3.50;;;27.00;52.70;;;;;;4999521;28;20451;-48
2022/08/10 08:27:45;;;;;;;3.40;3.20;;;27.00;52.60;;;;;;4993011;28;20553;-48
2022/08/10 08:30:15;;;;;;;3.70;3.40;;;27.00;52.90;;;;;;4992641;28;20507;-53
2022/08/10 08:32:43;;;;;;;3.20;3.00;;;27.00;52.90;;;;;;4997459;28;20478;-49
2022/08/10 08:35:15;;;;;;;3.40;3.20;;;27.00;52.40;;;;;;5012091;28;20455;-49
2022/08/10 08:37:44;;;;;;;3.27;2.87;;;27.00;52.20;;;;;;5012219;28;20541;-48
2022/08/10 08:40:14;;;;;;;3.70;3.40;;;26.90;52.20;;;;;;5012143;28;20544;-49
2022/08/10 08:42:54;;;;;;;5.27;3.27;;;27.00;52.50;;;;;;5007166;28;20479;-52
2022/08/10 08:45:30;;;;;;;3.67;3.47;;;27.00;52.50;;;;;;4992411;28;20470;-50
2022/08/10 08:48:25;;;;;;;3.80;3.60;;;27.00;52.00;;;;;;4992483;28;21057;-53
2022/08/10 08:51:09;;;;;;;2.97;2.87;;;27.10;53.80;;;;;;4993061;28;20486;-50
2022/08/10 08:53:50;;;;;;;3.20;3.03;;;27.10;54.40;;;;;;5004947;28;20446;-51
2022/08/10 08:56:25;;;;;;;3.33;3.13;;;27.10;53.70;;;;;;5013155;28;20446;-52
2022/08/10 08:59:08;;;;;;;3.63;3.33;;;27.10;53.70;;;;;;5053883;22;20494;-55
2022/08/10 09:02:03;;;;;;;3.00;2.80;;;27.20;53.60;;;;;;5012020;28;20504;-59
2022/08/10 09:04:44;;;;;;;3.93;3.73;;;27.20;53.50;;;;;;5030720;28;20460;-58
2022/08/10 09:07:48;;;;;;;3.17;3.00;;;27.20;53.10;;;;;;5031647;28;20562;-62
2022/08/10 09:10:22;;;;;;;3.47;3.20;;;27.20;52.40;;;;;;5031679;28;20896;-60
2022/08/10 09:12:54;;;;;;;3.43;3.23;;;27.20;53.00;;;;;;5026402;28;20481;-60
2022/08/10 09:15:33;;;;;;;3.43;3.13;;;27.20;52.70;;;;;;5011714;28;20446;-51
2022/08/10 09:18:10;;;;;;;3.97;3.60;;;27.20;52.50;;;;;;5011997;28;20996;-57
2022/08/10 09:20:46;;;;;;;3.07;2.87;;;27.20;52.20;;;;;;5011880;28;20437;-52
2022/08/10 09:23:25;;;;;;;4.87;4.57;;;27.20;52.20;;;;;;5019715;28;20809;-53
2022/08/10 09:25:55;;;;;;;5.07;4.40;;;27.20;52.60;;;;;;5031302;28;20445;-58
2022/08/10 09:28:25;;;;;;;5.17;4.77;;;27.20;52.90;;;;;;5031532;28;20473;-60
2022/08/10 09:30:58;;;;;;;9.60;5.67;;;27.20;53.40;;;;;;5031332;28;20572;-58
2022/08/10 09:33:34;;;;;;;5.97;5.33;;;27.30;58.40;;;;;;5025326;28;20446;-58
2022/08/10 09:36:08;;;;;;;13.33;7.57;;;27.40;58.60;;;;;;5015585;28;20801;-50
2022/08/10 09:38:47;;;;;;;10.80;5.60;;;27.40;62.40;;;;;;5015476;28;20958;-61
2022/08/10 09:41:25;;;;;;;9.07;5.70;;;27.40;60.80;;;;;;5020446;28;20474;-61
2022/08/10 09:44:00;;;;;;;11.60;5.40;;;27.30;58.90;;;;;;5035441;28;20448;-58
2022/08/10 09:46:47;;;;;;;8.20;4.80;;;27.40;58.30;;;;;;5035148;28;20532;-58
2022/08/10 09:49:21;;;;;;;4.57;4.03;;;27.40;58.00;;;;;;5035160;28;20480;-59
2022/08/10 09:51:56;;;;;;;7.40;5.53;;;27.30;57.60;;;;;;5025108;28;20560;-61
2022/08/10 09:54:53;;;;;;;4.40;4.00;;;27.30;57.30;;;;;;5015238;28;20452;-58
2022/08/10 09:57:28;;;;;;;6.73;4.07;;;27.30;57.10;;;;;;5016118;28;20998;-59
2022/08/10 10:00:01;;;;;;;5.87;3.63;;;27.30;56.90;;;;;;5016769;28;20871;-59
2022/08/10 10:02:37;;;;;;;7.80;3.77;;;27.30;56.80;;;;;;5030513;28;20445;-61
2022/08/10 10:05:14;;;;;;;8.17;4.03;;;27.30;56.50;;;;;;5035635;28;20440;-60
2022/08/10 10:07:48;;;;;;;5.80;3.87;;;27.30;56.20;;;;;;5034812;28;21012;-60
2022/08/10 10:10:21;;;;;;;7.73;3.80;;;27.30;56.00;;;;;;5034853;28;20484;-59
2022/08/10 10:12:55;;;;;;;7.57;4.67;;;27.30;55.80;;;;;;5017060;28;20548;-58
2022/08/10 10:15:33;;;;;;;6.37;3.30;;;27.20;55.70;;;;;;5014717;28;21018;-58
2022/08/10 10:18:27;;;;;;;4.10;3.80;;;27.10;55.80;;;;;;5014955;28;20998;-58
2022/08/10 10:21:02;;;;;;;4.20;3.90;;;27.10;56.00;;;;;;5015703;28;20458;-57
2022/08/10 10:23:41;;;;;;;3.57;3.17;;;27.00;56.00;;;;;;5034443;28;20491;-56
2022/08/10 10:26:20;;;;;;;3.20;2.90;;;27.00;56.40;;;;;;5034177;28;20877;-53
2022/08/10 10:29:02;;;;;;;3.57;3.33;;;27.00;56.60;;;;;;5034299;28;20473;-63
2022/08/10 10:31:35;;;;;;;3.50;3.30;;;27.00;55.60;;;;;;5028038;28;20505;-63
2022/08/10 10:34:12;;;;;;;3.70;3.40;;;27.10;55.00;;;;;;5014434;28;20450;-50
2022/08/10 10:36:42;;;;;;;3.20;2.90;;;27.10;54.90;;;;;;5014439;28;20481;-59
2022/08/10 10:39:14;;;;;;;4.17;3.93;;;27.10;55.00;;;;;;5014595;28;20548;-61
2022/08/10 10:41:50;;;;;;;3.43;3.17;;;27.10;54.80;;;;;;5034442;28;20935;-61
2022/08/10 10:44:32;;;;;;;3.60;3.40;;;27.10;53.90;;;;;;5033260;28;20527;-61
2022/08/10 10:47:14;;;;;;;4.70;4.17;;;27.10;53.70;;;;;;5033734;28;20536;-61
2022/08/10 10:49:49;;;;;;;3.67;3.47;;;27.10;53.70;;;;;;5029294;28;20485;-62
2022/08/10 10:52:27;;;;;;;4.47;2.90;;;27.10;53.50;;;;;;5014302;28;20469;-62
2022/08/10 10:55:08;;;;;;;4.80;4.40;;;27.10;53.30;;;;;;5014123;28;20477;-60
2022/08/10 10:57:46;;;;;;;4.17;3.87;;;27.20;53.80;;;;;;5021508;28;20473;-57
2022/08/10 11:00:16;;;;;;;4.03;3.73;;;27.20;55.00;;;;;;5034231;28;20445;-60
2022/08/10 11:03:01;;;;;;;3.50;3.30;;;27.30;54.70;;;;;;5035017;28;20481;-57
2022/08/10 11:05:36;;;;;;;3.90;3.60;;;27.30;54.00;;;;;;5034992;28;20528;-51
2022/08/10 11:08:08;;;;;;;3.60;3.47;;;27.30;55.00;;;;;;5023977;28;20466;-52
2022/08/10 11:10:41;;;;;;;3.53;3.23;;;27.30;55.50;;;;;;5014265;28;20560;-56
2022/08/10 11:13:23;;;;;;;3.77;3.53;;;27.40;55.30;;;;;;5014785;28;20553;-55
2022/08/10 11:15:58;;;;;;;3.43;3.20;;;27.40;55.00;;;;;;5014454;28;20492;-52
2022/08/10 11:18:33;;;;;;;4.33;3.90;;;27.40;53.80;;;;;;5029604;28;21026;-57
2022/08/10 11:21:15;;;;;;;3.97;3.77;;;27.40;54.30;;;;;;5033962;28;20448;-55
2022/08/10 11:23:50;;;;;;;3.47;2.70;;;27.40;53.80;;;;;;5033518;28;20448;-51
2022/08/10 11:26:25;;;;;;;3.73;3.33;;;27.40;53.40;;;;;;5031621;28;20514;-54
2022/08/10 11:29:02;;;;;;;4.27;3.97;;;27.50;53.10;;;;;;5015174;28;20563;-57
2022/08/10 11:31:37;;;;;;;3.10;2.97;;;27.50;53.20;;;;;;5013440;28;20485;-56
2022/08/10 11:34:15;;;;;;;4.50;3.83;;;27.50;52.60;;;;;;5013372;28;20974;-53
2022/08/10 11:36:53;;;;;;;3.67;3.47;;;27.50;51.40;;;;;;5016790;28;20441;-52
2022/08/10 11:39:27;;;;;;;3.93;3.73;;;27.50;52.10;;;;;;5033281;28;20480;-53
2022/08/10 11:42:01;;;;;;;3.77;3.33;;;27.50;51.50;;;;;;5033623;28;20448;-51
2022/08/10 11:44:32;;;;;;;3.40;3.20;;;27.50;51.30;;;;;;5033065;28;20480;-54
2022/08/10 11:47:05;;;;;;;3.63;3.43;;;27.50;51.40;;;;;;5014336;28;20484;-53
2022/08/10 11:49:39;;;;;;;3.13;2.93;;;27.50;51.40;;;;;;5013446;28;20450;-56
2022/08/10 11:52:13;;;;;;;3.93;3.73;;;27.50;51.80;;;;;;5013241;28;20549;-57
2022/08/10 11:54:43;;;;;;;3.60;3.30;;;27.60;51.40;;;;;;5026074;28;20449;-57
2022/08/10 11:57:11;;;;;;;3.70;3.50;;;27.60;51.90;;;;;;5032751;28;20564;-48
2022/08/10 11:59:55;;;;;;;3.80;3.60;;;27.60;51.70;;;;;;5032806;28;20502;-51
2022/08/10 12:02:24;;;;;;;3.73;3.53;;;27.60;50.80;;;;;;5033079;28;20441;-49
2022/08/10 12:04:55;;;;;;;3.50;3.30;;;27.60;50.90;;;;;;5017826;28;20819;-48
2022/08/10 12:07:23;;;;;;;3.70;3.50;;;27.60;50.90;;;;;;5012989;28;20466;-48
2022/08/10 12:09:53;;;;;;;7.20;3.27;;;27.60;50.60;;;;;;5012896;28;20524;-49
2022/08/10 12:12:21;;;;;;;3.83;3.53;;;27.60;50.70;;;;;;5012837;28;20481;-51
2022/08/10 12:14:56;;;;;;;3.70;3.40;;;27.60;50.40;;;;;;5026378;28;20528;-48
2022/08/10 12:17:28;;;;;;;3.30;3.10;;;27.60;50.40;;;;;;5032404;28;20464;-51
2022/08/10 12:20:06;;;;;;;3.60;3.40;;;27.60;50.80;;;;;;5032417;28;20496;-53
2022/08/10 12:22:40;;;;;;;4.07;3.67;;;27.60;51.10;;;;;;5032459;28;20923;-52
2022/08/10 12:25:14;;;;;;;3.53;3.23;;;27.70;51.10;;;;;;5016385;28;20455;-57
2022/08/10 12:27:45;;;;;;;3.60;3.40;;;27.70;51.30;;;;;;5012619;28;20554;-54
2022/08/10 12:30:15;;;;;;;4.20;4.00;;;27.70;51.50;;;;;;5013049;28;20492;-48
2022/08/10 12:32:51;;;;;;;3.27;3.07;;;27.80;50.80;;;;;;5012766;28;20846;-60
2022/08/10 12:35:26;;;;;;;4.10;3.60;;;27.80;50.80;;;;;;5028910;28;20471;-58
2022/08/10 12:38:05;;;;;;;4.10;3.90;;;27.80;50.50;;;;;;5032240;28;20548;-56
2022/08/10 12:40:40;;;;;;;3.87;3.53;;;27.80;49.90;;;;;;5032339;28;20534;-51
2022/08/10 12:43:12;;;;;;;3.57;3.27;;;27.90;50.40;;;;;;5014796;28;20808;-56
2022/08/10 12:45:50;;;;;;;4.10;3.90;;;27.90;49.70;;;;;;5012247;28;20484;-56
2022/08/10 12:48:24;;;;;;;3.97;3.67;;;28.00;50.00;;;;;;5012603;28;20473;-57
2022/08/10 12:50:57;;;;;;;3.27;3.07;;;27.90;49.00;;;;;;5012369;28;20488;-51
2022/08/10 12:53:36;;;;;;;3.80;3.57;;;27.90;50.20;;;;;;5012683;28;20454;-48
2022/08/10 12:56:05;;;;;;;3.60;3.40;;;27.90;49.10;;;;;;5012097;28;20446;-53
2022/08/10 12:58:34;;;;;;;3.17;2.97;;;28.00;49.70;;;;;;5012047;28;20482;-53
2022/08/10 13:01:05;;;;;;;3.43;3.23;;;28.00;49.10;;;;;;5025517;28;20480;-51
2022/08/10 13:03:34;;;;;;;3.50;3.30;;;28.00;49.40;;;;;;5032116;28;20456;-49
2022/08/10 13:06:04;;;;;;;3.37;3.07;;;28.10;49.00;;;;;;5031115;28;20954;-51
2022/08/10 13:11:20;;;;;;;4.13;3.90;;;28.10;48.30;;;;;;5016175;28;20484;-50
2022/08/10 13:13:50;;;;;;;3.87;3.67;;;28.20;48.80;;;;;;5012005;28;20521;-50